Report METAR

 

LIBV - Gioia Del Colle, Italy
Distance from station: SSE 15km
Dati ricevuti: 06/07/2022 21:55
Sereno
Sereno
 Vento da NNO
Vento: NNO 13 km/h
Temperatura: 25°C
P.to Rugiada: 16°C
Umidità: 57%
Pressione: 1015 hPa
Riassunto: Sereno
Visibility: superiore a 10 km
2022/07/06 19:55 LIBV 061955Z 33007KT CAVOK 25/16 Q1015
LIBD - Bari/Palese Macc, Italy
Distance from station: NNO 26km
Dati ricevuti: 06/07/2022 22:19
unable to load LIBD data RC=
unable to load LIBD data RC=
 
LIBH - Marina Di Ginosa, Italy
Distance from station: S 53km
Dati ricevuti: 06/07/2022 22:19
unable to load LIBH data RC=
unable to load LIBH data RC=
 
 
LIBG - Grottaglie(Civ/A, Italy
Distance from station: SE 61km
Dati ricevuti: 06/07/2022 19:50
DATI Obsoleti
Sereno
Sereno
 Vento da N
Vento: N 22 km/h
Temperatura: 30°C
P.to Rugiada: 11°C
Umidità: 31%
Pressione: 1012 hPa
Riassunto: Sereno
Visibility: superiore a 10 km
2022/07/06 17:50 LIBG 061750Z 36012KT CAVOK 30/11 Q1012
LIBR - Brindisi/Casale, Italy
Distance from station: ESE 96km
Dati ricevuti: 06/07/2022 22:19
unable to load LIBR data RC=
unable to load LIBR data RC=
 
LIBA - Amendola (it-Afb, Italy
Distance from station: NO 118km
Dati ricevuti: 06/07/2022 22:20
unable to load LIBA data RC=
unable to load LIBA data RC=
 
 
LIBF - Foggia/Gino Lisa, Italy
Distance from station: ONO 126km
Dati ricevuti: 06/07/2022 17:50
DATI Obsoleti
Poco Nuvoloso
Poco Nuvoloso
 Vento da NO
Vento: NO 30 km/h
Temperatura: 32°C
P.to Rugiada: 14°C
Umidità: 33%
Pressione: 1014 hPa
Nuvole: Poco Nuvoloso
Visibility: 10 km
Cloud details: Poco Nuvoloso 1219 m
2022/07/06 15:50 LIBF 061550Z 32016KT 9999 FEW040 32/14 Q1014
LIBN - Lecce (it-Afb), Italy
Distance from station: SE 132km
Dati ricevuti: 06/07/2022 21:55
Sereno
Sereno
 Vento da NO
Vento: NO 17 km/h
Temperatura: 27°C
Indice di Calore: 29°C
P.to Rugiada: 22°C
Umidità: 74%
Pressione: 1013 hPa
Riassunto: Sereno
Visibility: superiore a 10 km
2022/07/06 19:55 LIBN 061955Z 31009KT CAVOK 27/22 Q1013